Time;durP1;ratioP1;P1;durP2;ratioP2;P2;SDS_P1;SDS_P2;PMS_P1;PMS_P2;Temp;Humidity;BMP_temperature;BMP_pressure;BME280_temperature;BME280_humidity;BME280_pressure;Samples;Min_cycle;Max_cycle;Signal;HPM_P1;HPM_P2
2022/11/30 00:01:52;;;;;;;109.60;46.40;;;5.10;99.90;;;;;;4841497;29;20838;-62
2022/11/30 00:04:20;;;;;;;108.43;45.30;;;5.10;99.90;;;;;;4841876;29;20515;-63
2022/11/30 00:06:48;;;;;;;110.97;45.53;;;5.10;99.90;;;;;;4841898;29;20514;-62
2022/11/30 00:09:16;;;;;;;116.50;46.07;;;5.10;99.90;;;;;;4841463;29;20480;-61
2022/11/30 00:11:46;;;;;;;116.37;43.47;;;5.00;99.90;;;;;;4841642;29;20837;-62
2022/11/30 00:14:14;;;;;;;110.47;46.03;;;5.10;99.90;;;;;;4841657;29;20479;-62
2022/11/30 00:16:42;;;;;;;107.13;44.40;;;5.10;99.90;;;;;;4841653;29;20468;-62
2022/11/30 00:19:10;;;;;;;109.93;45.20;;;5.10;99.90;;;;;;4842016;29;20479;-62
2022/11/30 00:21:38;;;;;;;101.77;43.97;;;5.00;99.90;;;;;;4841324;29;20541;-62
2022/11/30 00:24:07;;;;;;;117.63;46.30;;;5.00;99.90;;;;;;4841355;29;20974;-62
2022/11/30 00:26:35;;;;;;;104.70;44.20;;;5.10;99.90;;;;;;4840661;29;20886;-62
2022/11/30 00:29:05;;;;;;;107.13;44.23;;;5.20;99.90;;;;;;4841855;29;20495;-62
2022/11/30 00:31:33;;;;;;;105.80;44.40;;;5.10;99.90;;;;;;4841225;29;20861;-63
2022/11/30 00:34:01;;;;;;;105.93;44.30;;;5.10;99.90;;;;;;4841685;29;20484;-61
2022/11/30 00:36:29;;;;;;;104.50;43.43;;;5.10;99.90;;;;;;4841671;29;20844;-62
2022/11/30 00:38:57;;;;;;;105.93;44.20;;;5.10;99.90;;;;;;4842277;29;20475;-62
2022/11/30 00:41:25;;;;;;;101.90;42.00;;;5.10;99.90;;;;;;4845273;29;20479;-62
2022/11/30 00:43:53;;;;;;;99.87;43.93;;;5.20;99.90;;;;;;4844478;29;20537;-62
2022/11/30 00:46:22;;;;;;;99.50;39.80;;;5.20;99.90;;;;;;4845040;29;20468;-62
2022/11/30 00:48:51;;;;;;;115.53;44.53;;;5.30;99.90;;;;;;4844915;29;20490;-62
2022/11/30 00:51:19;;;;;;;104.73;42.17;;;5.30;99.90;;;;;;4844787;29;20543;-62
2022/11/30 00:53:47;;;;;;;105.40;43.10;;;5.20;99.90;;;;;;4845126;29;20520;-62
2022/11/30 00:56:15;;;;;;;115.93;44.37;;;5.30;99.90;;;;;;4845007;29;20975;-61
2022/11/30 00:58:43;;;;;;;103.33;44.47;;;5.40;99.90;;;;;;4844604;29;20539;-62
2022/11/30 01:01:11;;;;;;;107.23;44.70;;;5.30;99.90;;;;;;4844665;29;20493;-62
2022/11/30 01:03:41;;;;;;;98.03;40.97;;;5.20;99.90;;;;;;4844353;29;20476;-62
2022/11/30 01:06:10;;;;;;;115.73;47.37;;;5.20;99.90;;;;;;4844612;29;20478;-63
2022/11/30 01:08:38;;;;;;;95.00;41.30;;;5.20;99.90;;;;;;4844665;29;20643;-62
2022/11/30 01:11:09;;;;;;;104.90;44.60;;;5.20;99.90;;;;;;4844899;29;20746;-62
2022/11/30 01:13:37;;;;;;;104.40;44.53;;;5.20;99.90;;;;;;4844467;29;20972;-62
2022/11/30 01:16:10;;;;;;;103.43;43.47;;;5.20;99.90;;;;;;4844426;29;20517;-62
2022/11/30 01:18:41;;;;;;;105.93;46.57;;;5.20;99.90;;;;;;4844365;29;20463;-62
2022/11/30 01:21:12;;;;;;;101.47;44.40;;;5.20;99.90;;;;;;4844250;29;20238;-62
2022/11/30 01:23:40;;;;;;;106.37;43.63;;;5.20;99.90;;;;;;4843986;29;20514;-62
2022/11/30 01:26:09;;;;;;;99.20;43.23;;;5.30;99.90;;;;;;4844246;29;20474;-62
2022/11/30 01:28:39;;;;;;;94.40;43.07;;;5.20;99.90;;;;;;4844160;29;20543;-61
2022/11/30 01:31:09;;;;;;;96.10;44.47;;;5.20;99.90;;;;;;4844076;29;20492;-62
2022/11/30 01:33:38;;;;;;;95.27;42.73;;;5.20;99.90;;;;;;4843781;29;20483;-62
2022/11/30 01:36:11;;;;;;;90.23;42.60;;;5.20;99.90;;;;;;4844425;29;20475;-62
2022/11/30 01:38:40;;;;;;;88.43;42.60;;;5.20;99.90;;;;;;4844246;29;20825;-62
2022/11/30 01:41:11;;;;;;;87.00;42.37;;;5.20;99.90;;;;;;4843997;29;20476;-61
2022/11/30 01:43:41;;;;;;;85.80;39.93;;;5.20;99.90;;;;;;4843591;29;20495;-62
2022/11/30 01:46:21;;;;;;;87.90;41.90;;;5.30;99.90;;;;;;4825605;29;20526;-62
2022/11/30 01:48:56;;;;;;;89.30;41.77;;;5.20;99.90;;;;;;4825968;29;20242;-62
2022/11/30 01:51:29;;;;;;;91.37;42.60;;;5.30;99.90;;;;;;4838631;29;20474;-62
2022/11/30 01:53:58;;;;;;;85.30;38.40;;;5.30;99.90;;;;;;4843572;29;20487;-62
2022/11/30 01:56:26;;;;;;;87.87;43.43;;;5.40;99.90;;;;;;4843574;29;20527;-61
2022/11/30 01:58:54;;;;;;;90.03;42.73;;;5.30;99.90;;;;;;4843936;29;20648;-61
2022/11/30 02:01:22;;;;;;;88.03;40.80;;;5.40;99.90;;;;;;4843565;29;20575;-62
2022/11/30 02:03:56;;;;;;;95.00;44.13;;;5.40;99.90;;;;;;4843634;29;20894;-62
2022/11/30 02:06:26;;;;;;;84.10;40.73;;;5.30;99.90;;;;;;4843907;29;20483;-62
2022/11/30 02:08:55;;;;;;;85.57;43.10;;;5.30;99.90;;;;;;4843153;29;20894;-62
2022/11/30 02:11:24;;;;;;;81.73;40.30;;;5.30;99.90;;;;;;4843511;29;20992;-62
2022/11/30 02:14:05;;;;;;;77.27;38.77;;;5.40;99.90;;;;;;4843643;29;20495;-62
2022/11/30 02:16:47;;;;;;;75.93;36.73;;;5.30;99.90;;;;;;4843575;29;20899;-62
2022/11/30 02:19:48;;;;;;;83.83;40.87;;;5.30;99.90;;;;;;4843686;29;20494;-62
2022/11/30 02:22:30;;;;;;;81.23;41.23;;;5.20;99.90;;;;;;4843281;29;20490;-62
2022/11/30 02:25:08;;;;;;;84.23;41.53;;;5.20;99.90;;;;;;4843502;29;20475;-62
2022/11/30 02:27:56;;;;;;;87.37;40.97;;;5.20;99.90;;;;;;4843066;29;20482;-62
2022/11/30 02:30:26;;;;;;;86.90;41.00;;;5.20;99.90;;;;;;4842991;29;21017;-62
2022/11/30 02:32:58;;;;;;;76.50;36.93;;;5.20;99.90;;;;;;4843193;29;20484;-62
2022/11/30 02:35:29;;;;;;;77.77;37.63;;;5.30;99.90;;;;;;4842962;29;20234;-61
2022/11/30 02:37:59;;;;;;;92.33;42.07;;;5.40;99.90;;;;;;4843067;29;20475;-62
2022/11/30 02:40:28;;;;;;;88.63;42.23;;;5.30;99.90;;;;;;4842851;29;20479;-62
2022/11/30 02:42:58;;;;;;;78.87;42.17;;;5.30;99.90;;;;;;4842465;29;20247;-62
2022/11/30 02:45:34;;;;;;;81.83;41.97;;;5.30;99.90;;;;;;4842669;29;20486;-62
2022/11/30 02:48:08;;;;;;;85.03;42.53;;;5.20;99.90;;;;;;4843131;29;20238;-62
2022/11/30 02:50:40;;;;;;;80.40;40.17;;;5.30;99.90;;;;;;4842407;29;20563;-62
2022/11/30 02:53:10;;;;;;;78.73;39.87;;;5.30;99.90;;;;;;4842768;29;20483;-62
2022/11/30 02:55:38;;;;;;;82.53;42.53;;;5.30;99.90;;;;;;4842677;29;20235;-62
2022/11/30 02:58:06;;;;;;;75.03;40.77;;;5.40;99.90;;;;;;4842549;29;20520;-62
2022/11/30 03:00:36;;;;;;;76.70;38.57;;;5.30;99.90;;;;;;4842138;29;20246;-62
2022/11/30 03:03:04;;;;;;;78.33;41.00;;;5.20;99.90;;;;;;4841828;29;20235;-62
2022/11/30 03:05:32;;;;;;;78.17;40.87;;;5.20;99.90;;;;;;4842459;29;20238;-62
2022/11/30 03:08:00;;;;;;;79.67;40.83;;;5.20;99.90;;;;;;4842661;29;20249;-62
2022/11/30 03:10:28;;;;;;;81.23;40.63;;;5.20;99.90;;;;;;4842573;29;20303;-62
2022/11/30 03:12:58;;;;;;;73.80;40.57;;;5.30;99.90;;;;;;4842077;29;20292;-62
2022/11/30 03:15:26;;;;;;;73.27;38.13;;;5.20;99.90;;;;;;4842540;29;20265;-62
2022/11/30 03:17:55;;;;;;;81.40;42.57;;;5.30;99.90;;;;;;4842591;29;20480;-62
2022/11/30 03:20:23;;;;;;;76.10;39.87;;;5.20;99.90;;;;;;4842561;29;20479;-62
2022/11/30 03:22:51;;;;;;;79.70;40.33;;;5.30;99.90;;;;;;4842082;29;20230;-62
2022/11/30 03:25:20;;;;;;;78.50;43.13;;;5.30;99.90;;;;;;4842418;29;20468;-62
2022/11/30 03:27:48;;;;;;;78.67;39.80;;;5.30;99.90;;;;;;4842246;29;20825;-62
2022/11/30 03:30:16;;;;;;;76.00;40.53;;;5.20;99.90;;;;;;4841939;29;20504;-61
2022/11/30 03:32:44;;;;;;;66.07;34.93;;;5.20;99.90;;;;;;4842103;29;20841;-62
2022/11/30 03:35:14;;;;;;;85.80;42.83;;;5.30;99.90;;;;;;4842370;29;20498;-62
2022/11/30 03:37:42;;;;;;;80.23;41.23;;;5.20;99.90;;;;;;4842079;29;20996;-62
2022/11/30 03:40:11;;;;;;;72.83;38.47;;;5.20;99.90;;;;;;4842485;29;20471;-62
2022/11/30 03:42:39;;;;;;;76.47;41.00;;;5.40;99.90;;;;;;4841134;29;20487;-62
2022/11/30 03:45:07;;;;;;;84.00;43.60;;;5.30;99.90;;;;;;4842474;29;20480;-62
2022/11/30 03:47:35;;;;;;;83.00;43.27;;;5.30;99.90;;;;;;4841774;29;20516;-62
2022/11/30 03:50:04;;;;;;;87.07;43.10;;;5.40;99.90;;;;;;4841811;29;20507;-63
2022/11/30 03:52:33;;;;;;;72.67;39.27;;;5.40;99.90;;;;;;4841406;29;20533;-62
2022/11/30 03:55:01;;;;;;;83.60;43.00;;;5.50;99.90;;;;;;4842362;29;20479;-62
2022/11/30 03:57:29;;;;;;;82.73;43.03;;;5.30;99.90;;;;;;4841738;29;20468;-62
2022/11/30 03:59:57;;;;;;;75.63;41.10;;;5.40;99.90;;;;;;4841879;29;20476;-62
2022/11/30 04:02:25;;;;;;;79.30;41.37;;;5.40;99.90;;;;;;4841260;29;20472;-61
2022/11/30 04:04:53;;;;;;;81.83;42.83;;;5.30;99.90;;;;;;4841931;29;20487;-62
2022/11/30 04:07:21;;;;;;;75.23;40.83;;;5.30;99.90;;;;;;4842179;29;20472;-60
2022/11/30 04:09:51;;;;;;;75.13;39.83;;;5.40;99.90;;;;;;4841980;29;20507;-61
2022/11/30 04:12:19;;;;;;;70.93;38.33;;;5.40;99.90;;;;;;4833480;29;20964;-62
2022/11/30 04:14:47;;;;;;;74.40;39.23;;;5.40;99.90;;;;;;4841500;29;20474;-62
2022/11/30 04:17:15;;;;;;;84.43;43.23;;;5.40;99.90;;;;;;4845512;29;20477;-61
2022/11/30 04:19:43;;;;;;;80.30;39.60;;;5.30;99.90;;;;;;4845630;29;20476;-61
2022/11/30 04:22:11;;;;;;;77.33;38.87;;;5.40;99.90;;;;;;4845403;29;20810;-62
2022/11/30 04:24:39;;;;;;;78.30;39.57;;;5.50;99.90;;;;;;4845649;29;20890;-62
2022/11/30 04:27:08;;;;;;;83.50;41.13;;;5.40;99.90;;;;;;4845788;29;20830;-62
2022/11/30 04:29:36;;;;;;;81.47;38.83;;;5.40;99.90;;;;;;4845393;29;20500;-62
2022/11/30 04:32:05;;;;;;;85.77;42.17;;;5.50;99.90;;;;;;4844991;29;20489;-62
2022/11/30 04:34:33;;;;;;;87.87;44.87;;;5.50;99.90;;;;;;4845279;29;20842;-62
2022/11/30 04:37:01;;;;;;;86.40;41.83;;;5.40;99.90;;;;;;4845363;29;20487;-62
2022/11/30 04:39:29;;;;;;;82.93;42.67;;;5.40;99.90;;;;;;4845259;29;20535;-62
2022/11/30 04:41:57;;;;;;;90.33;42.10;;;5.40;99.90;;;;;;4840223;29;20983;-62
2022/11/30 04:44:26;;;;;;;73.83;36.40;;;5.30;99.90;;;;;;4839207;29;20495;-62
2022/11/30 04:46:54;;;;;;;68.73;37.17;;;5.40;99.90;;;;;;4845552;29;21025;-62
2022/11/30 04:49:22;;;;;;;81.07;40.87;;;5.50;99.90;;;;;;4845163;29;20577;-62
2022/11/30 04:51:50;;;;;;;80.50;40.33;;;5.40;99.90;;;;;;4844069;29;20241;-62
2022/11/30 04:54:18;;;;;;;89.23;42.57;;;5.40;99.90;;;;;;4845030;29;20473;-62
2022/11/30 04:56:46;;;;;;;82.87;42.03;;;5.40;99.90;;;;;;4844770;29;20849;-62
2022/11/30 04:59:14;;;;;;;76.30;37.57;;;5.30;99.90;;;;;;4844745;29;20494;-62
2022/11/30 05:01:44;;;;;;;81.23;40.77;;;5.40;99.90;;;;;;4843953;29;20235;-62
2022/11/30 05:04:12;;;;;;;82.27;41.53;;;5.40;99.90;;;;;;4844733;29;20569;-63
2022/11/30 05:06:40;;;;;;;83.40;40.43;;;5.40;99.90;;;;;;4844650;29;20567;-62
2022/11/30 05:09:08;;;;;;;81.07;41.60;;;5.40;99.90;;;;;;4845017;29;20486;-63
2022/11/30 05:11:36;;;;;;;84.97;40.97;;;5.30;99.90;;;;;;4844458;29;20511;-62
2022/11/30 05:14:05;;;;;;;81.63;43.20;;;5.40;99.90;;;;;;4844576;29;21098;-62
2022/11/30 05:16:33;;;;;;;83.33;40.67;;;5.40;99.90;;;;;;4844613;29;20479;-62
2022/11/30 05:19:02;;;;;;;70.47;37.23;;;5.40;99.90;;;;;;4845016;29;20520;-62
2022/11/30 05:21:31;;;;;;;84.17;40.83;;;5.50;99.90;;;;;;4844101;29;20487;-62
2022/11/30 05:23:59;;;;;;;97.63;46.13;;;5.70;99.90;;;;;;4844051;29;20475;-63
2022/11/30 05:26:27;;;;;;;79.87;39.90;;;5.60;99.90;;;;;;4843783;29;20487;-62
2022/11/30 05:28:55;;;;;;;85.80;40.87;;;5.50;99.90;;;;;;4844503;29;20962;-62
2022/11/30 05:31:24;;;;;;;74.63;36.93;;;5.60;99.90;;;;;;4843780;29;21027;-62
2022/11/30 05:33:53;;;;;;;84.30;42.17;;;5.60;99.90;;;;;;4844097;29;20479;-62
2022/11/30 05:36:23;;;;;;;89.07;43.30;;;5.50;99.90;;;;;;4844297;29;20475;-62
2022/11/30 05:38:51;;;;;;;79.43;41.00;;;5.50;99.90;;;;;;4844092;29;20972;-63
2022/11/30 05:41:20;;;;;;;79.53;39.07;;;5.50;99.90;;;;;;4844368;29;20527;-62
2022/11/30 05:43:49;;;;;;;83.93;41.07;;;5.50;99.90;;;;;;4844024;29;20835;-63
2022/11/30 05:46:17;;;;;;;74.80;37.43;;;5.50;99.90;;;;;;4843694;29;20840;-62
2022/11/30 05:48:46;;;;;;;85.20;43.73;;;5.60;99.90;;;;;;4843860;29;20502;-63
2022/11/30 05:51:16;;;;;;;84.03;41.83;;;5.50;99.90;;;;;;4843936;29;20495;-62
2022/11/30 05:53:46;;;;;;;80.73;40.20;;;5.40;99.90;;;;;;4840670;29;21630;-62
2022/11/30 05:56:16;;;;;;;88.60;42.97;;;5.50;99.90;;;;;;4843889;29;20235;-61
2022/11/30 05:58:45;;;;;;;84.83;42.63;;;5.40;99.90;;;;;;4840719;29;20590;-62
2022/11/30 06:01:18;;;;;;;90.37;43.20;;;5.50;99.90;;;;;;4843454;29;20247;-62
2022/11/30 06:03:47;;;;;;;88.97;43.17;;;5.50;99.90;;;;;;4843805;29;20548;-62
2022/11/30 06:06:15;;;;;;;84.50;41.43;;;5.50;99.90;;;;;;4843541;29;20996;-62
2022/11/30 06:08:46;;;;;;;96.27;44.50;;;5.40;99.90;;;;;;4843505;29;20476;-62
2022/11/30 06:11:14;;;;;;;90.17;43.13;;;5.40;99.90;;;;;;4843805;29;20496;-62
2022/11/30 06:13:43;;;;;;;92.60;42.77;;;5.40;99.90;;;;;;4843524;29;20535;-63
2022/11/30 06:16:12;;;;;;;89.00;41.77;;;5.30;99.90;;;;;;4843537;29;20965;-62
2022/11/30 06:18:40;;;;;;;86.37;40.60;;;5.30;99.90;;;;;;4842364;29;20486;-62
2022/11/30 06:21:11;;;;;;;90.60;42.70;;;5.40;99.90;;;;;;4843427;29;20972;-61
2022/11/30 06:23:39;;;;;;;87.63;39.60;;;5.50;99.90;;;;;;4843162;29;20481;-63
2022/11/30 06:26:10;;;;;;;95.53;43.03;;;5.50;99.90;;;;;;4842843;29;20479;-63
2022/11/30 06:28:42;;;;;;;94.70;45.73;;;5.60;99.90;;;;;;4842563;29;20517;-62
2022/11/30 06:31:16;;;;;;;100.33;46.13;;;5.50;99.90;;;;;;4837898;29;20494;-63
2022/11/30 06:33:45;;;;;;;98.67;44.70;;;5.60;99.90;;;;;;4843153;29;20579;-62
2022/11/30 06:36:14;;;;;;;96.50;44.60;;;5.60;99.90;;;;;;4842902;29;20992;-63
2022/11/30 06:38:42;;;;;;;104.33;46.20;;;5.60;99.90;;;;;;4831658;29;20997;-62
2022/11/30 06:41:12;;;;;;;105.43;45.53;;;5.50;99.90;;;;;;4824902;29;20480;-63
2022/11/30 06:43:40;;;;;;;92.53;41.90;;;5.50;99.90;;;;;;4835586;29;20975;-63
2022/11/30 06:46:09;;;;;;;102.73;45.93;;;5.60;99.90;;;;;;4838802;29;20479;-62
2022/11/30 06:48:38;;;;;;;94.13;40.40;;;5.70;99.90;;;;;;4837666;29;21032;-63
2022/11/30 06:51:07;;;;;;;103.23;43.77;;;5.70;99.90;;;;;;4835777;29;20486;-63
2022/11/30 06:53:35;;;;;;;110.10;46.10;;;5.70;99.90;;;;;;4838752;29;20991;-63
2022/11/30 06:56:07;;;;;;;104.80;46.00;;;5.60;99.90;;;;;;4840922;29;20491;-63
2022/11/30 06:58:40;;;;;;;108.13;44.90;;;5.60;99.90;;;;;;4837405;29;20488;-62
2022/11/30 07:01:09;;;;;;;114.43;46.40;;;5.50;99.90;;;;;;4832588;29;21147;-62
2022/11/30 07:03:38;;;;;;;107.63;45.60;;;5.40;99.90;;;;;;4835374;29;20776;-61
2022/11/30 07:06:09;;;;;;;105.57;44.80;;;5.40;99.90;;;;;;4831027;29;21014;-59
2022/11/30 07:08:37;;;;;;;97.70;43.53;;;5.50;99.90;;;;;;4832279;29;20476;-62
2022/11/30 07:11:06;;;;;;;104.80;42.93;;;5.50;99.90;;;;;;4835377;29;20871;-60
2022/11/30 07:13:34;;;;;;;110.70;45.13;;;5.50;99.90;;;;;;4832867;29;20883;-61
2022/11/30 07:16:05;;;;;;;107.23;45.20;;;5.40;99.90;;;;;;4830521;29;20492;-62
2022/11/30 07:18:34;;;;;;;99.47;44.10;;;5.40;99.90;;;;;;4831947;29;20811;-62
2022/11/30 07:21:04;;;;;;;97.83;41.93;;;5.50;99.90;;;;;;4830045;29;20494;-62
2022/11/30 07:26:24;;;;;;;107.20;43.47;;;5.40;99.90;;;;;;4833035;29;20507;-62
2022/11/30 07:28:56;;;;;;;108.03;42.93;;;5.30;99.90;;;;;;4831681;29;20909;-61
2022/11/30 07:31:27;;;;;;;105.37;43.60;;;5.40;99.90;;;;;;4831187;29;20506;-62
2022/11/30 07:33:57;;;;;;;102.53;42.17;;;5.40;99.90;;;;;;4832318;29;20491;-61
2022/11/30 07:36:28;;;;;;;112.53;44.40;;;5.40;99.90;;;;;;4831578;29;20488;-62
2022/11/30 07:38:56;;;;;;;118.03;44.77;;;5.40;99.90;;;;;;4834042;29;20781;-59
2022/11/30 07:41:24;;;;;;;106.93;42.80;;;5.40;99.90;;;;;;4835750;29;20468;-62
2022/11/30 07:43:52;;;;;;;110.27;44.07;;;5.40;99.90;;;;;;4832663;29;20506;-62
2022/11/30 07:46:20;;;;;;;108.97;42.80;;;5.40;99.90;;;;;;4835668;29;20981;-58
2022/11/30 07:48:50;;;;;;;100.13;41.53;;;5.40;99.90;;;;;;4829855;29;20489;-57
2022/11/30 07:51:20;;;;;;;110.97;44.17;;;5.40;99.90;;;;;;4832542;29;21007;-62
2022/11/30 07:53:49;;;;;;;106.93;41.73;;;5.40;99.90;;;;;;4835323;29;20496;-62
2022/11/30 07:56:19;;;;;;;115.03;42.50;;;5.40;99.90;;;;;;4833517;29;21007;-63
2022/11/30 07:58:48;;;;;;;108.00;43.63;;;5.50;99.90;;;;;;4832873;29;20604;-62
2022/11/30 08:01:18;;;;;;;113.93;43.50;;;5.50;99.90;;;;;;4834660;29;20488;-60
2022/11/30 08:03:46;;;;;;;107.17;43.20;;;5.40;99.90;;;;;;4834600;29;20998;-62
2022/11/30 08:06:19;;;;;;;103.57;41.00;;;5.40;99.90;;;;;;4832409;29;20981;-62
2022/11/30 08:08:48;;;;;;;118.53;45.23;;;5.50;99.90;;;;;;4835598;29;20490;-61
2022/11/30 08:11:19;;;;;;;107.07;43.67;;;5.40;99.90;;;;;;4831245;29;20533;-62
2022/11/30 08:13:47;;;;;;;105.50;42.30;;;5.40;99.90;;;;;;4833446;29;20883;-61
2022/11/30 08:16:18;;;;;;;117.93;45.80;;;5.40;99.90;;;;;;4829881;29;20493;-61
2022/11/30 08:18:47;;;;;;;118.27;43.87;;;5.40;99.90;;;;;;4831112;29;20584;-60
2022/11/30 08:21:18;;;;;;;111.87;44.97;;;5.40;99.90;;;;;;4842020;29;20491;-58
2022/11/30 08:23:48;;;;;;;110.83;42.00;;;5.40;99.90;;;;;;4838868;29;21111;-60
2022/11/30 08:26:17;;;;;;;113.73;45.50;;;5.40;99.90;;;;;;4829844;29;20962;-58
2022/11/30 08:28:47;;;;;;;110.13;42.50;;;5.30;99.90;;;;;;4830246;29;20863;-62
2022/11/30 08:31:17;;;;;;;116.57;43.20;;;5.40;99.90;;;;;;4833093;29;21057;-61
2022/11/30 08:33:45;;;;;;;114.97;43.10;;;5.40;99.90;;;;;;4828481;29;21060;-61
2022/11/30 08:36:16;;;;;;;108.27;42.13;;;5.40;99.90;;;;;;4830848;29;20495;-60
2022/11/30 08:38:45;;;;;;;114.47;43.60;;;5.40;99.90;;;;;;4832080;29;20983;-61
2022/11/30 08:41:16;;;;;;;109.73;43.53;;;5.50;99.90;;;;;;4833710;29;20472;-62
2022/11/30 08:43:44;;;;;;;107.57;41.50;;;5.50;99.90;;;;;;4834548;29;20497;-59
2022/11/30 08:46:14;;;;;;;109.00;42.77;;;5.50;99.90;;;;;;4831458;29;20483;-62
2022/11/30 08:49:02;;;;;;;118.10;42.70;;;5.60;99.90;;;;;;4832634;29;21010;-62
2022/11/30 08:51:53;;;;;;;100.40;41.70;;;5.60;99.90;;;;;;4832994;29;20550;-62
2022/11/30 08:54:43;;;;;;;113.57;41.97;;;5.70;99.90;;;;;;4833421;29;20568;-62
2022/11/30 08:57:31;;;;;;;116.27;43.77;;;5.70;99.90;;;;;;4830341;29;20482;-63
2022/11/30 09:00:00;;;;;;;106.97;42.60;;;5.70;99.90;;;;;;4830955;29;20713;-56
2022/11/30 09:02:28;;;;;;;103.63;40.93;;;5.60;99.90;;;;;;4834858;29;21028;-62
2022/11/30 09:04:56;;;;;;;108.60;41.87;;;5.70;99.90;;;;;;4838402;29;20239;-62
2022/11/30 09:07:25;;;;;;;107.07;39.23;;;5.70;99.90;;;;;;4844668;29;20249;-63
2022/11/30 09:09:53;;;;;;;116.17;43.83;;;5.70;99.90;;;;;;4846800;29;20654;-62
2022/11/30 09:12:21;;;;;;;110.90;41.20;;;5.60;99.90;;;;;;4843945;29;20511;-60
2022/11/30 09:14:49;;;;;;;116.90;43.40;;;5.60;99.90;;;;;;4847005;29;20505;-60
2022/11/30 09:17:25;;;;;;;107.63;42.87;;;5.60;99.90;;;;;;4837891;29;21033;-62
2022/11/30 09:19:53;;;;;;;115.33;41.37;;;5.60;99.90;;;;;;4838356;29;20474;-62
2022/11/30 09:22:21;;;;;;;110.43;42.07;;;5.60;99.90;;;;;;4833619;29;21032;-60
2022/11/30 09:24:51;;;;;;;104.37;42.27;;;5.60;99.90;;;;;;4833472;29;20314;-62
2022/11/30 09:27:19;;;;;;;101.17;40.63;;;5.60;99.90;;;;;;4835487;29;21213;-59
2022/11/30 09:29:47;;;;;;;97.73;38.43;;;5.60;99.90;;;;;;4844611;29;20524;-62
2022/11/30 09:32:15;;;;;;;117.83;44.90;;;5.70;99.90;;;;;;4844610;29;20502;-62
2022/11/30 09:34:43;;;;;;;110.20;41.73;;;5.70;99.90;;;;;;4842867;29;20500;-61
2022/11/30 09:37:12;;;;;;;106.33;43.37;;;5.70;99.90;;;;;;4841799;29;20283;-63
2022/11/30 09:39:40;;;;;;;99.80;41.77;;;5.70;99.90;;;;;;4844662;29;20539;-62
2022/11/30 09:42:26;;;;;;;114.47;42.97;;;5.70;99.90;;;;;;4846930;29;20478;-63
2022/11/30 09:45:01;;;;;;;104.23;39.67;;;5.70;99.90;;;;;;4842539;29;20266;-62
2022/11/30 09:47:49;;;;;;;103.70;42.03;;;5.70;99.90;;;;;;4843222;29;20543;-62
2022/11/30 09:50:20;;;;;;;97.67;38.70;;;5.70;99.90;;;;;;4845116;29;20498;-60
2022/11/30 09:52:51;;;;;;;102.10;41.87;;;5.80;99.90;;;;;;4843102;29;20785;-62
2022/11/30 09:55:26;;;;;;;100.27;38.60;;;5.80;99.90;;;;;;4842823;29;20519;-59
2022/11/30 09:57:58;;;;;;;103.40;40.93;;;5.80;99.90;;;;;;4841940;29;21025;-63
2022/11/30 10:00:26;;;;;;;95.43;38.63;;;5.70;99.90;;;;;;4840666;29;20223;-62
2022/11/30 10:02:56;;;;;;;100.33;40.37;;;5.80;99.90;;;;;;4831743;29;20444;-63
2022/11/30 10:05:28;;;;;;;95.93;40.03;;;5.90;99.90;;;;;;4835162;29;20451;-63
2022/11/30 10:08:15;;;;;;;101.07;41.10;;;5.80;99.90;;;;;;4832350;29;20219;-62
2022/11/30 10:10:51;;;;;;;98.07;39.13;;;5.80;99.90;;;;;;4836116;29;20461;-63
2022/11/30 10:13:38;;;;;;;100.60;39.27;;;6.00;99.90;;;;;;4843506;29;20233;-61
2022/11/30 10:16:17;;;;;;;100.13;40.90;;;6.00;99.90;;;;;;4840208;29;20447;-62
2022/11/30 10:18:57;;;;;;;100.30;39.53;;;6.00;99.90;;;;;;4846646;29;20456;-61
2022/11/30 10:21:47;;;;;;;95.63;39.50;;;5.90;99.90;;;;;;4842825;29;20460;-62
2022/11/30 10:24:26;;;;;;;94.47;40.27;;;6.00;99.90;;;;;;4837534;29;20463;-60
2022/11/30 10:26:56;;;;;;;100.53;40.83;;;5.90;99.90;;;;;;4835523;29;20462;-56
2022/11/30 10:29:31;;;;;;;90.27;38.87;;;5.80;99.90;;;;;;4836077;29;21137;-63
2022/11/30 10:32:01;;;;;;;96.50;38.63;;;5.70;99.90;;;;;;4836269;29;20505;-63
2022/11/30 10:34:33;;;;;;;88.37;38.60;;;5.80;99.90;;;;;;4831616;29;20516;-61
2022/11/30 10:37:05;;;;;;;88.63;39.70;;;5.80;99.90;;;;;;4842041;29;20525;-62
2022/11/30 10:39:38;;;;;;;87.50;39.53;;;5.80;99.90;;;;;;4843452;29;20937;-62
2022/11/30 10:42:12;;;;;;;88.03;38.90;;;5.80;99.90;;;;;;4844871;29;20489;-62
2022/11/30 10:44:46;;;;;;;84.70;36.43;;;5.70;99.90;;;;;;4842787;29;20487;-59
2022/11/30 10:47:17;;;;;;;88.00;37.10;;;5.90;99.90;;;;;;4840567;29;21190;-63
2022/11/30 10:49:48;;;;;;;97.90;41.90;;;5.80;99.90;;;;;;4844410;29;20844;-62
2022/11/30 10:52:22;;;;;;;90.33;37.57;;;5.80;99.90;;;;;;4843917;29;20202;-61
2022/11/30 10:54:53;;;;;;;93.30;39.03;;;5.80;99.90;;;;;;4844128;29;20216;-61
2022/11/30 10:57:31;;;;;;;88.13;39.63;;;5.80;99.90;;;;;;4842763;29;20452;-63
2022/11/30 11:00:05;;;;;;;84.07;36.97;;;5.70;99.90;;;;;;4843765;29;20234;-59
2022/11/30 11:02:39;;;;;;;84.20;38.97;;;5.90;99.90;;;;;;4840688;29;20222;-62
2022/11/30 11:05:20;;;;;;;81.80;38.57;;;5.90;99.90;;;;;;4830117;29;20519;-61
2022/11/30 11:07:52;;;;;;;83.20;35.93;;;5.80;99.90;;;;;;4834558;29;21095;-62
2022/11/30 11:10:24;;;;;;;80.73;37.43;;;5.90;99.90;;;;;;4834214;29;20227;-57
2022/11/30 11:12:54;;;;;;;76.33;37.63;;;5.90;99.90;;;;;;4832335;29;20226;-62
2022/11/30 11:15:25;;;;;;;72.40;34.00;;;6.00;99.90;;;;;;4832692;29;20500;-62
2022/11/30 11:18:11;;;;;;;78.07;35.63;;;6.00;99.90;;;;;;4833892;29;20769;-63
2022/11/30 11:20:41;;;;;;;78.80;38.13;;;6.10;99.90;;;;;;4833375;29;20225;-60
2022/11/30 11:23:21;;;;;;;74.93;36.30;;;6.00;99.90;;;;;;4845336;29;20456;-60
2022/11/30 11:25:52;;;;;;;71.83;35.57;;;6.00;99.90;;;;;;4840871;29;20644;-61
2022/11/30 11:28:23;;;;;;;75.50;35.87;;;6.00;99.90;;;;;;4841707;29;20452;-61
2022/11/30 11:30:55;;;;;;;66.40;32.53;;;6.00;99.90;;;;;;4842942;29;20589;-63
2022/11/30 11:33:24;;;;;;;77.37;36.83;;;6.00;99.90;;;;;;4843385;29;20495;-62
2022/11/30 11:35:55;;;;;;;79.70;38.00;;;6.00;99.90;;;;;;4841622;29;20739;-63
2022/11/30 11:38:26;;;;;;;71.33;36.47;;;6.00;99.90;;;;;;4842225;29;20599;-62
2022/11/30 11:40:57;;;;;;;74.50;35.83;;;6.00;99.90;;;;;;4841178;29;20885;-62
2022/11/30 11:43:28;;;;;;;76.47;35.70;;;6.00;99.90;;;;;;4840431;29;20517;-60
2022/11/30 11:46:00;;;;;;;65.33;33.77;;;6.00;99.90;;;;;;4828966;29;20327;-59
2022/11/30 11:48:35;;;;;;;74.13;36.43;;;6.20;99.90;;;;;;4832297;29;21312;-63
2022/11/30 11:51:05;;;;;;;70.53;37.63;;;6.10;99.90;;;;;;4832687;29;20703;-60
2022/11/30 11:53:44;;;;;;;73.80;34.77;;;6.00;99.90;;;;;;4837985;29;20493;-63
2022/11/30 11:56:24;;;;;;;72.87;36.03;;;5.90;99.90;;;;;;4831776;29;20505;-62
2022/11/30 11:58:59;;;;;;;71.87;35.57;;;6.00;99.90;;;;;;4832170;29;20224;-62
2022/11/30 12:01:54;;;;;;;67.70;36.80;;;5.90;99.90;;;;;;4833155;29;20234;-62
2022/11/30 12:04:44;;;;;;;68.90;35.13;;;6.00;99.90;;;;;;4833665;29;20238;-62
2022/11/30 12:07:22;;;;;;;68.00;33.77;;;6.00;99.90;;;;;;4827931;29;20242;-61
2022/11/30 12:09:59;;;;;;;63.40;32.83;;;6.00;99.90;;;;;;4830713;29;20718;-58
2022/11/30 12:12:28;;;;;;;65.97;34.87;;;5.90;99.90;;;;;;4831372;29;20703;-61
2022/11/30 12:14:56;;;;;;;63.90;33.70;;;6.00;99.90;;;;;;4834780;29;20254;-63
2022/11/30 12:17:46;;;;;;;63.93;34.77;;;6.00;99.90;;;;;;4825812;29;20674;-62
2022/11/30 12:20:23;;;;;;;61.60;33.07;;;6.00;99.90;;;;;;4827709;29;20486;-62
2022/11/30 12:23:03;;;;;;;64.87;34.73;;;6.10;99.90;;;;;;4826380;29;20235;-61
2022/11/30 12:25:37;;;;;;;56.43;32.37;;;6.00;99.90;;;;;;4824151;29;20896;-62
2022/11/30 12:28:19;;;;;;;58.80;33.13;;;6.10;99.90;;;;;;4825986;29;21003;-62
2022/11/30 12:30:57;;;;;;;59.57;33.40;;;6.00;99.90;;;;;;4833639;29;20492;-61
2022/11/30 12:33:39;;;;;;;58.83;33.67;;;6.10;99.90;;;;;;4833517;29;20491;-61
2022/11/30 12:36:13;;;;;;;61.90;33.60;;;6.00;99.90;;;;;;4834276;29;20250;-59
2022/11/30 12:38:48;;;;;;;63.43;33.53;;;6.10;99.90;;;;;;4841944;29;21100;-61
2022/11/30 12:41:36;;;;;;;59.33;33.47;;;6.10;99.90;;;;;;4847175;29;21043;-58
2022/11/30 12:44:21;;;;;;;67.73;34.17;;;6.10;99.90;;;;;;4843430;29;20251;-61
2022/11/30 12:46:56;;;;;;;68.87;36.67;;;6.10;99.90;;;;;;4845504;29;20989;-62
2022/11/30 12:49:40;;;;;;;63.27;35.23;;;6.10;99.90;;;;;;4846142;29;20238;-61
2022/11/30 12:52:23;;;;;;;63.40;34.53;;;6.10;99.90;;;;;;4845320;29;20235;-62
2022/11/30 12:54:59;;;;;;;59.20;32.87;;;6.00;99.90;;;;;;4844625;29;20610;-62
2022/11/30 12:57:31;;;;;;;61.50;33.50;;;6.00;99.90;;;;;;4841875;29;20295;-61